Time;durP1;ratioP1;P1;durP2;ratioP2;P2;SDS_P1;SDS_P2;PMS_P1;PMS_P2;Temp;Humidity;BMP_temperature;BMP_pressure;BME280_temperature;BME280_humidity;BME280_pressure;Samples;Min_cycle;Max_cycle;Signal;HPM_P1;HPM_P2
2021/03/08 00:00:55;;;;;;;24.27;13.82;;;7.30;99.90;;;;;;5085287;28;20458;-74
2021/03/08 00:03:21;;;;;;;18.30;12.40;;;7.30;99.90;;;;;;5083843;28;20549;-73
2021/03/08 00:05:47;;;;;;;20.35;11.77;;;7.40;99.90;;;;;;5084115;28;20027;-74
2021/03/08 00:08:13;;;;;;;17.70;10.43;;;7.40;99.90;;;;;;5082654;28;20101;-73
2021/03/08 00:10:40;;;;;;;15.02;10.25;;;7.40;99.90;;;;;;5085606;28;20484;-73
2021/03/08 00:13:06;;;;;;;18.67;9.00;;;7.40;99.90;;;;;;5083038;28;20016;-73
2021/03/08 00:15:32;;;;;;;17.65;10.18;;;7.40;99.90;;;;;;5063670;28;20686;-73
2021/03/08 00:17:59;;;;;;;17.63;11.52;;;7.40;99.90;;;;;;5082087;28;20017;-73
2021/03/08 00:20:27;;;;;;;19.38;9.57;;;7.40;99.90;;;;;;5079759;28;20031;-73
2021/03/08 00:22:53;;;;;;;15.85;9.98;;;7.30;99.90;;;;;;5081883;28;20021;-73
2021/03/08 00:25:30;;;;;;;19.95;11.05;;;7.30;99.90;;;;;;5078096;28;20362;-73
2021/03/08 00:27:56;;;;;;;17.55;10.05;;;7.40;99.90;;;;;;5082291;28;20516;-73
2021/03/08 00:30:23;;;;;;;24.15;10.48;;;7.40;99.90;;;;;;5080698;28;20116;-73
2021/03/08 00:32:48;;;;;;;16.67;11.98;;;7.40;99.90;;;;;;5083222;28;20501;-73
2021/03/08 00:35:16;;;;;;;21.98;12.70;;;7.40;99.90;;;;;;5081706;28;20025;-73
2021/03/08 00:37:43;;;;;;;20.52;11.88;;;7.40;99.90;;;;;;5081549;28;20024;-74
2021/03/08 00:40:10;;;;;;;20.08;12.10;;;7.40;99.90;;;;;;5083304;28;20028;-73
2021/03/08 00:42:36;;;;;;;21.50;14.82;;;7.40;99.90;;;;;;5085510;28;20103;-73
2021/03/08 00:45:09;;;;;;;17.17;11.13;;;7.40;99.90;;;;;;5083544;28;20031;-73
2021/03/08 00:47:35;;;;;;;18.67;13.18;;;7.40;99.90;;;;;;5082724;28;20017;-73
2021/03/08 00:50:01;;;;;;;25.75;13.48;;;7.30;99.90;;;;;;5081882;28;20059;-73
2021/03/08 00:52:27;;;;;;;21.77;16.60;;;7.30;99.90;;;;;;5085909;28;20096;-74
2021/03/08 00:54:53;;;;;;;27.38;14.77;;;7.20;99.90;;;;;;5084075;28;20112;-73
2021/03/08 00:57:19;;;;;;;22.30;13.15;;;7.30;99.90;;;;;;5081161;28;20043;-73
2021/03/08 00:59:44;;;;;;;21.58;14.90;;;7.30;99.90;;;;;;5086583;28;20031;-73
2021/03/08 01:02:11;;;;;;;20.35;13.88;;;7.30;99.90;;;;;;5081617;28;20028;-73
2021/03/08 01:04:37;;;;;;;17.95;13.95;;;7.30;99.90;;;;;;5081582;28;20024;-73
2021/03/08 01:07:02;;;;;;;19.02;12.45;;;7.20;99.90;;;;;;5083144;28;20455;-73
2021/03/08 01:09:28;;;;;;;17.70;12.38;;;7.20;99.90;;;;;;5080880;28;20034;-73
2021/03/08 01:11:54;;;;;;;17.83;10.40;;;7.20;99.90;;;;;;5081808;28;20020;-73
2021/03/08 01:14:20;;;;;;;21.25;10.02;;;7.30;99.90;;;;;;5082850;28;20036;-73
2021/03/08 01:16:46;;;;;;;15.23;9.07;;;7.30;99.90;;;;;;5083163;28;20505;-73
2021/03/08 01:19:12;;;;;;;23.83;12.02;;;7.40;99.90;;;;;;5082380;28;20099;-73
2021/03/08 01:21:38;;;;;;;18.88;12.93;;;7.40;99.90;;;;;;5082488;28;20035;-73
2021/03/08 01:24:04;;;;;;;19.48;14.00;;;7.30;99.90;;;;;;5080800;28;20040;-73
2021/03/08 01:26:30;;;;;;;22.27;13.07;;;7.30;99.90;;;;;;5081591;28;20591;-73
2021/03/08 01:28:56;;;;;;;20.70;11.75;;;7.30;99.90;;;;;;5082309;28;20107;-73
2021/03/08 01:31:21;;;;;;;19.75;13.45;;;7.20;99.90;;;;;;5083144;28;20493;-73
2021/03/08 01:33:51;;;;;;;20.05;11.98;;;7.10;99.90;;;;;;5082497;28;20466;-73
2021/03/08 01:36:17;;;;;;;25.80;13.77;;;7.10;99.90;;;;;;5081944;28;20017;-73
2021/03/08 01:38:43;;;;;;;21.50;14.57;;;7.00;99.90;;;;;;5081541;28;20631;-73
2021/03/08 01:41:08;;;;;;;22.38;14.18;;;6.90;99.90;;;;;;5080324;28;20036;-73
2021/03/08 01:43:34;;;;;;;22.52;12.90;;;6.90;99.90;;;;;;5081111;28;20012;-73
2021/03/08 01:46:00;;;;;;;23.25;14.27;;;6.80;99.90;;;;;;5082370;28;20458;-73
2021/03/08 01:48:26;;;;;;;26.05;15.70;;;6.80;99.90;;;;;;5082786;28;20025;-73
2021/03/08 01:50:52;;;;;;;25.15;15.68;;;6.70;99.90;;;;;;5082095;28;20040;-74
2021/03/08 01:53:19;;;;;;;21.58;14.95;;;6.70;99.90;;;;;;5082829;28;20507;-74
2021/03/08 01:55:45;;;;;;;21.75;14.35;;;6.70;99.90;;;;;;5079802;28;20020;-73
2021/03/08 01:58:11;;;;;;;18.10;12.82;;;6.70;99.90;;;;;;5081922;28;20512;-73
2021/03/08 02:00:38;;;;;;;20.52;13.15;;;6.60;99.90;;;;;;5081031;28;20028;-73
2021/03/08 02:03:05;;;;;;;22.73;13.57;;;6.60;99.90;;;;;;5062488;28;20503;-73
2021/03/08 02:05:33;;;;;;;25.65;13.90;;;6.60;99.90;;;;;;5080450;28;20039;-74
2021/03/08 02:08:01;;;;;;;21.45;13.05;;;6.60;99.90;;;;;;5082045;28;20028;-74
2021/03/08 02:10:29;;;;;;;18.88;12.25;;;6.60;99.90;;;;;;5081649;28;20035;-73
2021/03/08 02:13:13;;;;;;;18.92;12.38;;;6.60;99.90;;;;;;5080093;28;20062;-74
2021/03/08 02:16:00;;;;;;;17.80;11.77;;;6.60;99.90;;;;;;5081796;28;20035;-74
2021/03/08 02:19:02;;;;;;;16.85;9.60;;;6.60;99.90;;;;;;5081797;28;20024;-74
2021/03/08 02:21:43;;;;;;;18.65;10.80;;;6.50;99.90;;;;;;5081999;28;20031;-73
2021/03/08 02:24:26;;;;;;;15.77;10.25;;;6.60;99.90;;;;;;5081653;28;20114;-73
2021/03/08 02:27:19;;;;;;;17.10;8.80;;;6.60;99.90;;;;;;5081437;28;20450;-74
2021/03/08 02:29:50;;;;;;;13.70;9.40;;;6.40;99.90;;;;;;5081809;28;20027;-74
2021/03/08 02:32:40;;;;;;;13.48;8.77;;;6.40;99.90;;;;;;5080492;28;20031;-73
2021/03/08 02:35:13;;;;;;;;;;;6.40;99.90;;;;;;5081678;28;20032;-73
2021/03/08 02:37:51;;;;;;;15.48;9.23;;;6.40;99.90;;;;;;5081263;28;20392;-74
2021/03/08 02:40:24;;;;;;;19.33;11.90;;;6.40;99.90;;;;;;5082030;28;20043;-74
2021/03/08 02:42:56;;;;;;;28.90;14.50;;;6.40;99.90;;;;;;5081528;28;20501;-74
2021/03/08 02:45:26;;;;;;;21.08;12.43;;;6.50;99.90;;;;;;5081566;28;20036;-73
2021/03/08 02:47:53;;;;;;;19.50;11.40;;;6.40;99.90;;;;;;5080014;28;20047;-74
2021/03/08 02:50:23;;;;;;;15.93;11.10;;;6.50;99.90;;;;;;5081523;28;20052;-74
2021/03/08 02:52:59;;;;;;;17.83;11.35;;;6.50;99.90;;;;;;5082467;28;20472;-74
2021/03/08 02:55:38;;;;;;;15.95;9.77;;;6.70;99.90;;;;;;5078932;28;20021;-74
2021/03/08 02:58:07;;;;;;;20.13;11.70;;;6.70;99.90;;;;;;5082481;28;20020;-74
2021/03/08 03:00:34;;;;;;;16.35;11.95;;;6.70;99.90;;;;;;5091746;28;20032;-74
2021/03/08 03:03:00;;;;;;;20.08;12.80;;;6.70;99.90;;;;;;5077697;28;20033;-74
2021/03/08 03:05:27;;;;;;;19.00;12.07;;;6.70;99.90;;;;;;5071485;28;20488;-74
2021/03/08 03:07:55;;;;;;;18.52;12.88;;;6.70;99.90;;;;;;5071097;28;20031;-74
2021/03/08 03:10:27;;;;;;;21.13;12.65;;;6.70;99.90;;;;;;5071383;28;20039;-74
2021/03/08 03:12:54;;;;;;;25.23;12.70;;;6.60;99.90;;;;;;5088201;28;20024;-74
2021/03/08 03:15:21;;;;;;;21.45;13.25;;;6.60;99.90;;;;;;5095074;28;20112;-74
2021/03/08 03:17:48;;;;;;;18.35;13.27;;;6.50;99.90;;;;;;5095385;28;20020;-73
2021/03/08 03:20:16;;;;;;;20.70;15.07;;;6.60;99.90;;;;;;5094522;28;20123;-73
2021/03/08 03:22:45;;;;;;;19.15;12.43;;;6.60;99.90;;;;;;5080800;28;20027;-73
2021/03/08 03:25:16;;;;;;;24.38;11.05;;;6.70;99.90;;;;;;5095314;28;20036;-73
2021/03/08 03:27:44;;;;;;;22.83;12.02;;;6.60;99.90;;;;;;5084707;28;20107;-73
2021/03/08 03:30:11;;;;;;;21.20;11.70;;;6.60;99.90;;;;;;5074992;28;20032;-73
2021/03/08 03:32:37;;;;;;;20.48;12.55;;;6.70;99.90;;;;;;5081560;28;20028;-73
2021/03/08 03:35:04;;;;;;;19.67;9.95;;;6.70;99.90;;;;;;5095392;28;20366;-73
2021/03/08 03:37:31;;;;;;;18.70;12.00;;;6.60;99.90;;;;;;5095050;28;20028;-73
2021/03/08 03:39:56;;;;;;;19.98;15.90;;;6.60;99.90;;;;;;5094969;28;20028;-73
2021/03/08 03:42:22;;;;;;;19.80;13.73;;;6.60;99.90;;;;;;5094448;28;20089;-73
2021/03/08 03:44:48;;;;;;;27.73;15.60;;;6.60;99.90;;;;;;5078747;28;20033;-73
2021/03/08 03:47:14;;;;;;;21.25;13.38;;;6.60;99.90;;;;;;5074106;28;20028;-73
2021/03/08 03:49:40;;;;;;;24.10;12.27;;;6.60;99.90;;;;;;5074548;28;20048;-73
2021/03/08 03:52:07;;;;;;;40.38;25.83;;;6.60;99.90;;;;;;5074214;28;20500;-73
2021/03/08 03:54:33;;;;;;;28.48;16.67;;;6.60;99.90;;;;;;5074680;28;20032;-73
2021/03/08 03:57:05;;;;;;;22.55;14.13;;;6.60;99.90;;;;;;5081297;28;20069;-73
2021/03/08 03:59:46;;;;;;;21.85;14.00;;;6.60;99.90;;;;;;5091583;28;20035;-73
2021/03/08 04:02:35;;;;;;;23.13;13.20;;;6.60;99.90;;;;;;5074511;28;20021;-73
2021/03/08 04:05:02;;;;;;;22.65;15.45;;;6.60;99.90;;;;;;5089513;28;20471;-73
2021/03/08 04:07:33;;;;;;;20.02;12.07;;;6.60;99.90;;;;;;5094497;28;20032;-73
2021/03/08 04:09:59;;;;;;;19.88;11.45;;;6.70;99.90;;;;;;5074434;28;20029;-73
2021/03/08 04:12:29;;;;;;;17.38;10.80;;;6.60;99.90;;;;;;5075710;28;20024;-73
2021/03/08 04:15:00;;;;;;;20.05;10.77;;;6.50;99.90;;;;;;5074120;28;20032;-74
2021/03/08 04:17:27;;;;;;;20.20;10.95;;;6.50;99.90;;;;;;5087271;28;20039;-73
2021/03/08 04:19:56;;;;;;;16.83;10.32;;;6.60;99.90;;;;;;5094489;28;20100;-73
2021/03/08 04:22:25;;;;;;;19.25;11.07;;;6.50;99.90;;;;;;5093548;28;20016;-73
2021/03/08 04:24:53;;;;;;;17.35;10.60;;;6.60;99.90;;;;;;5094507;28;20052;-74
2021/03/08 04:27:20;;;;;;;13.55;9.80;;;6.50;99.90;;;;;;5091363;28;20039;-73
2021/03/08 04:29:47;;;;;;;17.15;10.38;;;6.50;99.90;;;;;;5081451;28;20024;-73
2021/03/08 04:32:15;;;;;;;16.13;9.80;;;6.60;99.90;;;;;;5073478;28;20086;-73
2021/03/08 04:34:41;;;;;;;20.38;10.85;;;6.60;99.90;;;;;;5073754;28;20111;-73
2021/03/08 04:37:08;;;;;;;15.13;10.02;;;6.50;99.90;;;;;;5073855;28;20024;-73
2021/03/08 04:39:37;;;;;;;18.40;12.90;;;6.60;99.90;;;;;;5089991;28;20024;-73
2021/03/08 04:42:07;;;;;;;22.13;12.75;;;6.50;99.90;;;;;;5093713;28;20028;-73
2021/03/08 04:44:39;;;;;;;16.27;12.43;;;6.50;99.90;;;;;;5093882;28;20024;-73
2021/03/08 04:47:06;;;;;;;19.58;11.98;;;6.50;99.90;;;;;;5093265;28;20032;-74
2021/03/08 04:49:34;;;;;;;17.02;12.52;;;6.60;99.90;;;;;;5093361;28;20111;-73
2021/03/08 04:52:01;;;;;;;19.98;12.25;;;6.60;99.90;;;;;;5093994;28;20551;-73
2021/03/08 04:54:28;;;;;;;18.73;13.05;;;6.50;99.90;;;;;;5093329;28;20032;-73
2021/03/08 04:56:55;;;;;;;21.20;12.63;;;6.50;99.90;;;;;;5075261;28;20039;-73
2021/03/08 04:59:23;;;;;;;15.27;11.68;;;6.50;99.90;;;;;;5093442;28;20491;-73
2021/03/08 05:01:50;;;;;;;17.65;12.20;;;6.50;99.90;;;;;;5086480;28;20412;-73
2021/03/08 05:04:18;;;;;;;21.55;12.48;;;6.50;99.90;;;;;;5093269;28;20032;-73
2021/03/08 05:06:45;;;;;;;21.55;11.63;;;6.50;99.90;;;;;;5093699;28;20480;-73
2021/03/08 05:09:14;;;;;;;18.23;11.52;;;6.50;99.90;;;;;;5093404;28;20112;-73
2021/03/08 05:11:41;;;;;;;19.75;11.02;;;6.50;99.90;;;;;;5093429;28;20514;-73
2021/03/08 05:14:12;;;;;;;17.70;11.02;;;6.50;99.90;;;;;;5093184;28;20031;-73
2021/03/08 05:16:46;;;;;;;20.02;12.20;;;6.60;99.90;;;;;;5093353;28;20026;-73
2021/03/08 05:19:13;;;;;;;18.15;11.32;;;6.50;99.90;;;;;;5091830;28;20511;-73
2021/03/08 05:21:39;;;;;;;16.48;10.93;;;6.40;99.90;;;;;;5074974;28;20499;-73
2021/03/08 05:24:05;;;;;;;17.15;11.05;;;6.50;99.90;;;;;;5093064;28;20540;-73
2021/03/08 05:26:31;;;;;;;21.67;12.30;;;6.40;99.90;;;;;;5092969;28;20032;-73
2021/03/08 05:28:59;;;;;;;17.15;10.70;;;6.50;99.90;;;;;;5093229;28;20506;-73
2021/03/08 05:31:39;;;;;;;16.88;10.48;;;6.40;99.90;;;;;;5081491;28;20033;-73
2021/03/08 05:34:08;;;;;;;23.63;14.07;;;6.40;99.90;;;;;;5071713;28;20039;-73
2021/03/08 05:36:41;;;;;;;14.85;10.18;;;6.30;99.90;;;;;;5072807;28;20032;-73
2021/03/08 05:39:09;;;;;;;17.27;10.85;;;6.30;99.90;;;;;;5073656;28;20020;-73
2021/03/08 05:41:55;;;;;;;18.60;12.98;;;6.40;99.90;;;;;;5075406;28;20032;-73
2021/03/08 05:44:22;;;;;;;16.52;11.05;;;6.50;99.90;;;;;;5092596;28;20036;-73
2021/03/08 05:46:54;;;;;;;16.63;11.52;;;6.50;99.90;;;;;;5092831;28;20551;-73
2021/03/08 05:49:47;;;;;;;18.05;12.68;;;6.50;99.90;;;;;;5092204;28;20511;-73
2021/03/08 05:52:27;;;;;;;19.38;11.65;;;6.60;99.90;;;;;;5091654;28;20036;-73
2021/03/08 05:55:14;;;;;;;18.48;12.68;;;6.60;99.90;;;;;;5092398;28;20031;-73
2021/03/08 05:57:41;;;;;;;22.77;12.55;;;6.60;99.90;;;;;;5087380;28;20032;-73
2021/03/08 06:00:18;;;;;;;20.27;13.23;;;6.60;99.90;;;;;;5085412;28;20024;-73
2021/03/08 06:03:18;;;;;;;20.48;13.15;;;6.60;99.90;;;;;;5089175;28;20032;-73
2021/03/08 06:05:53;;;;;;;19.05;13.57;;;6.50;99.90;;;;;;5072598;28;20039;-74
2021/03/08 06:08:44;;;;;;;21.05;13.55;;;6.60;99.90;;;;;;5089069;28;20028;-73
2021/03/08 06:11:10;;;;;;;21.17;12.95;;;6.50;99.90;;;;;;5077388;28;20032;-74
2021/03/08 06:13:47;;;;;;;22.48;14.38;;;6.50;99.90;;;;;;5074191;28;20369;-73
2021/03/08 06:16:24;;;;;;;20.98;13.32;;;6.50;99.90;;;;;;5084755;28;20427;-73
2021/03/08 06:18:52;;;;;;;20.10;13.25;;;6.50;99.90;;;;;;5074109;28;20020;-73
2021/03/08 06:21:19;;;;;;;20.33;12.48;;;6.50;99.90;;;;;;5074293;28;20369;-73
2021/03/08 06:23:46;;;;;;;17.35;11.75;;;6.50;99.90;;;;;;5079968;28;21401;-74
2021/03/08 06:26:13;;;;;;;19.10;12.20;;;6.50;99.90;;;;;;5084166;28;20481;-73
2021/03/08 06:28:40;;;;;;;19.40;13.07;;;6.50;99.90;;;;;;5078077;28;20032;-74
2021/03/08 06:31:07;;;;;;;18.98;13.05;;;6.50;99.90;;;;;;5063053;28;20055;-75
2021/03/08 06:33:34;;;;;;;17.63;11.57;;;6.50;99.90;;;;;;5076391;28;20398;-75
2021/03/08 06:36:01;;;;;;;16.80;11.13;;;6.40;99.90;;;;;;5080146;28;20480;-75
2021/03/08 06:38:31;;;;;;;16.77;10.57;;;6.40;99.90;;;;;;5080550;28;20020;-75
2021/03/08 06:40:59;;;;;;;18.83;11.32;;;6.40;99.90;;;;;;5077401;28;20517;-75
2021/03/08 06:43:28;;;;;;;17.63;9.63;;;6.30;99.90;;;;;;5082869;28;20031;-75
2021/03/08 06:45:55;;;;;;;17.05;11.00;;;6.40;99.90;;;;;;5082460;28;20090;-74
2021/03/08 06:48:22;;;;;;;15.85;10.90;;;6.40;99.90;;;;;;5080771;28;20040;-75
2021/03/08 06:51:05;;;;;;;17.85;11.68;;;6.40;99.90;;;;;;5080563;28;20044;-73
2021/03/08 06:53:31;;;;;;;17.80;11.20;;;6.30;99.90;;;;;;5080113;28;20043;-74
2021/03/08 06:56:20;;;;;;;20.52;12.27;;;6.40;99.90;;;;;;5085098;28;20032;-74
2021/03/08 06:59:05;;;;;;;18.38;10.85;;;6.40;99.90;;;;;;5073138;28;20046;-74
2021/03/08 07:01:37;;;;;;;20.50;11.32;;;6.50;99.90;;;;;;5079271;28;20119;-74
2021/03/08 07:04:14;;;;;;;16.05;9.07;;;6.50;99.90;;;;;;5080570;28;20172;-77
2021/03/08 07:06:40;;;;;;;18.17;10.80;;;6.50;99.90;;;;;;5082021;28;20368;-76
2021/03/08 07:09:11;;;;;;;17.25;11.50;;;6.60;99.90;;;;;;5080169;28;20032;-76
2021/03/08 07:11:40;;;;;;;19.35;11.43;;;6.70;99.90;;;;;;5071733;28;20404;-77
2021/03/08 07:14:18;;;;;;;18.88;10.60;;;6.70;99.90;;;;;;5081177;28;20029;-76
2021/03/08 07:16:44;;;;;;;16.35;11.30;;;6.70;99.90;;;;;;5076550;28;20577;-77
2021/03/08 07:19:10;;;;;;;17.17;10.75;;;6.70;99.90;;;;;;5085588;28;20020;-76
2021/03/08 07:21:37;;;;;;;20.10;13.60;;;6.70;99.90;;;;;;5078890;28;20032;-79
2021/03/08 07:24:14;;;;;;;16.60;10.20;;;6.70;99.90;;;;;;5081384;28;20025;-77
2021/03/08 07:26:51;;;;;;;16.23;9.55;;;6.80;99.90;;;;;;5083172;28;20511;-77
2021/03/08 07:29:18;;;;;;;15.73;10.82;;;6.70;99.90;;;;;;5082004;28;20032;-76
2021/03/08 07:31:45;;;;;;;22.75;11.95;;;6.70;99.90;;;;;;5079867;28;20515;-76
2021/03/08 07:34:13;;;;;;;14.35;10.23;;;6.70;99.90;;;;;;5058552;28;20020;-76
2021/03/08 07:36:40;;;;;;;18.75;10.18;;;6.70;99.90;;;;;;5067782;28;20024;-75
2021/03/08 07:39:19;;;;;;;17.30;10.80;;;6.70;99.90;;;;;;5083012;28;20048;-75
2021/03/08 07:42:01;;;;;;;15.95;11.13;;;6.70;99.90;;;;;;5000953;28;20058;-76
2021/03/08 07:44:30;;;;;;;16.80;10.90;;;6.70;99.90;;;;;;5009261;28;20028;-77
2021/03/08 07:46:58;;;;;;;17.02;11.80;;;6.70;99.90;;;;;;4997737;28;20133;-77
2021/03/08 07:49:37;;;;;;;25.52;19.45;;;6.80;99.90;;;;;;5009472;28;20497;-76
2021/03/08 07:52:09;;;;;;;17.98;12.40;;;6.90;99.90;;;;;;5009288;28;20030;-76
2021/03/08 07:54:57;;;;;;;18.25;10.60;;;6.90;99.90;;;;;;5006164;28;20034;-76
2021/03/08 07:57:25;;;;;;;20.60;10.95;;;7.00;99.90;;;;;;5006059;28;20025;-74
2021/03/08 07:59:51;;;;;;;17.77;11.02;;;7.00;99.90;;;;;;5008291;28;20037;-75
2021/03/08 08:02:17;;;;;;;20.35;11.93;;;7.00;99.90;;;;;;5012844;28;20021;-74
2021/03/08 08:04:43;;;;;;;19.85;12.57;;;7.10;99.90;;;;;;5004965;28;20093;-75
2021/03/08 08:07:12;;;;;;;22.95;12.98;;;7.10;99.90;;;;;;5010813;28;20488;-75
2021/03/08 08:09:46;;;;;;;24.30;12.23;;;7.20;99.90;;;;;;5005606;28;20026;-74
2021/03/08 08:12:14;;;;;;;22.45;12.35;;;7.40;99.90;;;;;;5002990;28;20022;-74
2021/03/08 08:14:42;;;;;;;21.33;13.52;;;7.50;99.90;;;;;;5010834;28;20177;-74
2021/03/08 08:17:15;;;;;;;25.00;13.73;;;7.60;99.90;;;;;;5010869;28;20026;-74
2021/03/08 08:19:44;;;;;;;24.20;16.67;;;7.60;99.90;;;;;;5012224;28;20104;-75
2021/03/08 08:22:20;;;;;;;19.05;13.18;;;7.80;99.90;;;;;;5012650;28;20025;-76
2021/03/08 08:24:47;;;;;;;24.08;13.50;;;7.80;99.90;;;;;;5009887;28;20164;-76
2021/03/08 08:27:16;;;;;;;19.17;12.52;;;8.00;99.90;;;;;;5011388;28;20022;-76
2021/03/08 08:29:45;;;;;;;26.52;14.73;;;8.10;99.90;;;;;;5001780;28;20077;-75
2021/03/08 08:32:11;;;;;;;21.05;14.38;;;8.20;99.90;;;;;;5022830;28;20415;-76
2021/03/08 08:34:41;;;;;;;22.13;14.50;;;8.30;99.90;;;;;;5002532;28;20030;-76
2021/03/08 08:37:11;;;;;;;21.48;13.90;;;8.30;99.90;;;;;;5007277;28;20096;-75
2021/03/08 08:39:36;;;;;;;23.88;14.77;;;8.40;99.90;;;;;;5012468;28;20407;-75
2021/03/08 08:42:22;;;;;;;23.40;14.57;;;8.50;99.90;;;;;;5011796;28;20033;-75
2021/03/08 08:44:52;;;;;;;20.92;14.05;;;8.50;99.90;;;;;;5011839;28;20140;-74
2021/03/08 08:47:29;;;;;;;27.90;14.88;;;8.50;98.50;;;;;;5012367;28;20021;-74
2021/03/08 08:50:02;;;;;;;26.38;16.45;;;8.40;99.40;;;;;;5012185;28;20065;-74
2021/03/08 08:52:50;;;;;;;24.50;15.63;;;8.50;99.10;;;;;;5002602;28;20030;-75
2021/03/08 08:55:19;;;;;;;28.70;14.88;;;8.60;99.30;;;;;;5004292;28;20030;-75
2021/03/08 08:58:18;;;;;;;26.65;16.60;;;8.70;99.20;;;;;;5011543;28;20051;-75
2021/03/08 09:01:04;;;;;;;29.00;15.93;;;8.70;99.00;;;;;;5007742;28;20117;-74
2021/03/08 09:03:48;;;;;;;21.23;14.55;;;8.80;97.70;;;;;;4990091;28;20031;-74
2021/03/08 09:06:40;;;;;;;22.73;14.35;;;8.80;98.30;;;;;;4999187;28;20501;-74
2021/03/08 09:09:06;;;;;;;18.48;13.35;;;8.80;98.70;;;;;;5010587;28;20026;-74
2021/03/08 09:11:56;;;;;;;24.02;13.98;;;8.90;99.10;;;;;;5011451;28;20471;-75
2021/03/08 09:14:24;;;;;;;;;;;8.80;98.60;;;;;;5011449;28;20029;-75
2021/03/08 09:17:12;;;;;;;25.08;14.35;;;8.80;98.10;;;;;;5012706;28;19909;-74
2021/03/08 09:19:39;;;;;;;35.50;16.63;;;8.80;98.80;;;;;;5012574;28;20022;-76
2021/03/08 09:22:23;;;;;;;27.33;16.55;;;8.90;98.20;;;;;;4999166;28;20038;-76
2021/03/08 09:24:52;;;;;;;38.63;30.90;;;9.00;98.20;;;;;;5008421;28;20030;-78
2021/03/08 09:27:29;;;;;;;26.38;19.60;;;9.10;99.10;;;;;;5012929;28;20101;-77
2021/03/08 09:30:12;;;;;;;24.73;15.57;;;9.30;98.50;;;;;;5012079;28;20034;-79
2021/03/08 09:32:47;;;;;;;25.50;16.38;;;9.30;97.80;;;;;;5012476;28;20025;-76
2021/03/08 09:35:14;;;;;;;26.10;16.05;;;9.50;98.00;;;;;;5012884;28;20230;-76
2021/03/08 09:37:44;;;;;;;21.63;13.18;;;9.50;97.20;;;;;;5006418;28;20353;-74
2021/03/08 09:40:10;;;;;;;23.27;13.48;;;9.60;95.30;;;;;;5012659;28;20486;-75
2021/03/08 09:42:37;;;;;;;20.48;12.20;;;9.70;94.90;;;;;;5012397;28;20433;-75
2021/03/08 09:45:30;;;;;;;20.90;13.38;;;9.60;95.60;;;;;;5027949;28;20038;-75
2021/03/08 09:47:57;;;;;;;23.75;13.00;;;9.60;94.00;;;;;;5012555;28;20512;-75
2021/03/08 09:50:35;;;;;;;23.88;14.05;;;9.80;95.90;;;;;;5011637;28;20053;-73
2021/03/08 09:53:01;;;;;;;22.60;15.45;;;10.10;95.60;;;;;;5013089;28;20029;-73
2021/03/08 09:55:32;;;;;;;26.73;16.73;;;10.40;95.20;;;;;;5012026;28;20474;-73
2021/03/08 09:58:07;;;;;;;30.80;20.15;;;10.60;94.80;;;;;;5012756;28;20033;-73
2021/03/08 10:00:33;;;;;;;30.67;19.13;;;10.80;95.00;;;;;;5012497;28;20026;-73
2021/03/08 10:03:02;;;;;;;27.08;16.95;;;11.00;94.80;;;;;;5012957;28;20595;-74
2021/03/08 10:05:37;;;;;;;30.13;20.30;;;11.10;93.40;;;;;;5011342;28;20055;-74
2021/03/08 10:08:04;;;;;;;36.22;19.40;;;11.10;93.30;;;;;;5012801;28;20416;-74
2021/03/08 10:10:29;;;;;;;26.65;19.98;;;10.90;93.50;;;;;;5012129;28;20034;-75
2021/03/08 10:13:00;;;;;;;32.10;19.73;;;10.70;94.90;;;;;;5012698;28;20029;-73
2021/03/08 10:15:27;;;;;;;30.80;19.00;;;10.70;94.70;;;;;;5012362;28;20030;-74
2021/03/08 10:17:59;;;;;;;28.30;22.00;;;10.70;94.00;;;;;;5011969;28;20108;-74
2021/03/08 10:20:28;;;;;;;34.17;21.10;;;10.70;95.30;;;;;;5011826;28;20049;-73
2021/03/08 10:22:54;;;;;;;28.92;19.38;;;10.80;94.30;;;;;;5010953;28;20498;-74
2021/03/08 10:25:29;;;;;;;33.85;19.08;;;10.70;92.50;;;;;;4992543;28;20042;-74
2021/03/08 10:28:00;;;;;;;32.33;19.95;;;10.50;93.60;;;;;;4992422;28;20457;-74
2021/03/08 10:30:28;;;;;;;28.42;20.63;;;10.50;93.80;;;;;;4991370;28;20109;-73
2021/03/08 10:33:03;;;;;;;28.88;19.13;;;10.30;92.90;;;;;;4993048;28;20049;-74
2021/03/08 10:35:33;;;;;;;27.77;20.48;;;10.00;94.80;;;;;;5000218;28;20069;-74
2021/03/08 10:38:00;;;;;;;31.60;22.35;;;9.70;96.00;;;;;;5012181;28;20030;-73
2021/03/08 10:40:27;;;;;;;31.98;23.25;;;9.60;97.00;;;;;;5011933;28;20053;-73
2021/03/08 10:42:54;;;;;;;35.40;22.63;;;9.60;97.70;;;;;;5012255;28;20359;-74
2021/03/08 10:45:20;;;;;;;32.97;24.10;;;9.80;97.60;;;;;;5011145;28;20029;-73
2021/03/08 10:48:09;;;;;;;35.97;23.75;;;10.00;96.20;;;;;;5011763;28;20030;-73
2021/03/08 10:50:47;;;;;;;31.93;21.60;;;10.70;95.60;;;;;;5011946;28;20048;-74
2021/03/08 10:53:16;;;;;;;33.95;20.80;;;11.10;93.50;;;;;;5012094;28;20053;-74
2021/03/08 10:55:42;;;;;;;27.13;18.67;;;11.50;91.90;;;;;;5012168;28;20455;-74
2021/03/08 10:58:07;;;;;;;27.92;19.70;;;11.60;90.60;;;;;;5012362;28;20390;-73
2021/03/08 11:00:34;;;;;;;32.53;21.95;;;11.30;91.70;;;;;;5012375;28;20042;-73
2021/03/08 11:03:00;;;;;;;27.95;20.15;;;11.10;93.80;;;;;;5012242;28;20062;-73
2021/03/08 11:05:30;;;;;;;31.48;21.30;;;11.00;93.40;;;;;;5012470;28;20478;-73
2021/03/08 11:07:57;;;;;;;29.40;20.73;;;10.70;94.00;;;;;;5011446;28;20371;-73
2021/03/08 11:10:37;;;;;;;30.38;20.10;;;10.60;92.80;;;;;;5011742;28;20081;-73
2021/03/08 11:13:08;;;;;;;36.65;20.27;;;10.20;93.90;;;;;;5012076;28;20022;-73
2021/03/08 11:15:34;;;;;;;;;;;10.00;93.20;;;;;;5012686;28;20029;-73
2021/03/08 11:18:00;;;;;;;26.08;19.88;;;10.10;94.00;;;;;;5011974;28;19933;-73
2021/03/08 11:20:29;;;;;;;28.52;21.05;;;10.10;94.90;;;;;;5012208;28;20068;-74
2021/03/08 11:22:55;;;;;;;30.65;19.55;;;10.40;94.20;;;;;;5011657;28;20026;-74
2021/03/08 11:25:37;;;;;;;30.40;20.15;;;10.50;92.40;;;;;;5011324;28;20085;-73
2021/03/08 11:28:06;;;;;;;32.05;19.63;;;11.10;90.60;;;;;;5012007;28;20037;-73
2021/03/08 11:30:33;;;;;;;27.55;19.45;;;12.60;84.50;;;;;;5011954;28;20045;-73
2021/03/08 11:33:00;;;;;;;26.67;18.38;;;13.40;79.40;;;;;;5013471;28;20026;-73
2021/03/08 11:35:32;;;;;;;25.98;18.30;;;13.80;77.40;;;;;;5015564;28;20077;-73
2021/03/08 11:38:03;;;;;;;29.25;19.00;;;14.20;73.70;;;;;;5015576;28;20022;-73
2021/03/08 11:40:30;;;;;;;27.55;17.95;;;14.50;72.50;;;;;;5015705;28;20034;-73
2021/03/08 11:42:57;;;;;;;27.58;18.73;;;14.90;72.30;;;;;;5015650;28;20021;-74
2021/03/08 11:45:23;;;;;;;28.98;18.00;;;15.20;71.20;;;;;;5015631;28;20034;-74
2021/03/08 11:47:54;;;;;;;22.08;16.55;;;15.30;68.30;;;;;;5015600;28;20072;-74
2021/03/08 11:50:21;;;;;;;;;;;15.40;66.60;;;;;;5015407;28;20129;-73
2021/03/08 11:52:47;;;;;;;29.48;18.65;;;15.70;66.10;;;;;;5015406;28;19905;-74
2021/03/08 11:55:13;;;;;;;25.27;16.65;;;15.40;65.50;;;;;;5015166;28;20382;-74
2021/03/08 11:57:44;;;;;;;21.40;17.85;;;15.50;64.80;;;;;;5015174;28;20041;-74
2021/03/08 12:00:11;;;;;;;27.02;17.10;;;15.70;63.40;;;;;;5015069;28;20164;-74
2021/03/08 12:02:38;;;;;;;25.13;17.98;;;14.90;72.40;;;;;;5015166;28;20040;-74
2021/03/08 12:05:05;;;;;;;28.75;19.13;;;13.80;75.30;;;;;;5014781;28;20453;-74
2021/03/08 12:07:30;;;;;;;31.10;18.15;;;13.20;75.50;;;;;;5015065;28;20040;-74
2021/03/08 12:09:56;;;;;;;28.38;18.35;;;13.40;76.00;;;;;;5014500;28;20030;-74
2021/03/08 12:12:22;;;;;;;29.02;17.83;;;13.50;75.50;;;;;;5013097;28;20034;-74
2021/03/08 12:14:48;;;;;;;27.52;18.20;;;14.20;73.00;;;;;;5014556;28;20105;-74
2021/03/08 12:17:13;;;;;;;24.60;18.15;;;14.20;73.10;;;;;;5014830;28;20383;-74
2021/03/08 12:19:39;;;;;;;28.17;18.75;;;13.70;71.70;;;;;;5014794;28;20366;-73
2021/03/08 12:22:05;;;;;;;25.98;16.50;;;13.80;73.80;;;;;;5013590;28;20053;-73
2021/03/08 12:24:31;;;;;;;26.75;18.88;;;13.60;72.70;;;;;;5014640;28;20576;-73
2021/03/08 12:26:57;;;;;;;27.25;17.10;;;13.20;75.30;;;;;;5014066;28;20054;-74
2021/03/08 12:29:22;;;;;;;26.48;15.63;;;13.50;72.60;;;;;;5014673;28;20057;-74
2021/03/08 12:31:53;;;;;;;23.73;16.40;;;13.40;74.50;;;;;;5013394;28;20044;-76
2021/03/08 12:34:18;;;;;;;27.92;14.88;;;13.30;77.30;;;;;;5014289;28;20025;-73
2021/03/08 12:36:44;;;;;;;34.22;23.80;;;13.30;73.70;;;;;;5014657;28;20026;-74
2021/03/08 12:39:10;;;;;;;21.48;12.50;;;13.50;73.90;;;;;;5014572;28;20433;-74
2021/03/08 12:41:36;;;;;;;26.05;16.15;;;13.50;72.30;;;;;;5014766;28;20113;-73
2021/03/08 12:44:02;;;;;;;19.90;12.90;;;13.70;72.90;;;;;;5014192;28;20030;-73
2021/03/08 12:46:27;;;;;;;28.65;14.75;;;16.20;65.80;;;;;;5014417;28;20084;-73
2021/03/08 12:48:53;;;;;;;23.35;13.90;;;23.20;51.90;;;;;;5013986;28;20554;-74
2021/03/08 12:51:22;;;;;;;18.25;12.20;;;24.90;41.80;;;;;;5013354;28;20085;-75